Rechercher aéroport 
image banner adimage banner adimage banner ad
image banner ad

CL95 - County Headquarters Bldg

Situé à San Bernardino, United States

ICAO - CL95, IATA -

Données fournies par Airmate  

Information générale

Coordonnées: N34°6'11" W117°16'19"
Élévation : 1040 feet MSL.
Variation magnétique : 14° East
Voir autres Aéroports à California

Données opérationnelles

Special qualification required
Heure actuelle UTC:
Heure actuelle locale:
Météo à : KSBD - San Bernardino Intl ( 4 km )
METAR: KSBD 231240Z AUTO 00000KT 10SM CLR 22/09 A2994 RMK AO2 T02230090
TAF: KSBD 231125Z 2312/2412 VRB04KT P6SM SKC FM232000 26011KT P6SM SCT100 FM240300 25005KT P6SM SCT100
Voir NOTAMs / SUP AIP / TFR affectant cet aéroport [VIEW]
Fréquences de communication: [VIEW]

Pistes:

Coordonnées de l'aéroport

Adresse: San Bernardino United States

Vue satellite de CL95